Poynor, Texas
Current Conditions -  °F | °C
As of 11:55 AM on Thursday 30 Oct 2014 (Local Time) from KF44 Reporting Station
Clear Clear  
Wind Chill: 68°   Ceiling: Unl
Heat Index: 68°   Visibility: 10mi
Dew Point: 46°   Wind: 5mph
Humidity: 46%   Direction: 120°ESE
Pressure: 30.16"   Gusts: NA
Location:  32.07°N, 95.6°W
Report Text: KF44 301655Z AUTO 12004KT 10SM CLR 20/08 A3016 RMK AO2
Loading
Personal Weather Stations






























Interactive Weather Map
Tropical Storm Tracking
New forecast layout! Learn more

10-Day Weather Forecast

Advertisements
Track Severe Weather on mobile